Time;durP1;ratioP1;P1;durP2;ratioP2;P2;SDS_P1;SDS_P2;PMS_P1;PMS_P2;Temp;Humidity;BMP_temperature;BMP_pressure;BME280_temperature;BME280_humidity;BME280_pressure;Samples;Min_cycle;Max_cycle;Signal;HPM_P1;HPM_P2
2021/04/08 00:00:47;;;;;;;1.00;0.80;;;23.50;53.90;;;;;;5155082;27;20475;-82
2021/04/08 00:03:13;;;;;;;1.10;0.70;;;23.50;53.90;;;;;;5154929;27;20467;-83
2021/04/08 00:05:40;;;;;;;0.97;0.67;;;23.50;53.90;;;;;;5154978;27;20842;-82
2021/04/08 00:08:07;;;;;;;0.97;0.70;;;23.50;53.90;;;;;;5154888;27;20430;-81
2021/04/08 00:10:33;;;;;;;1.10;0.80;;;23.50;53.90;;;;;;5154958;27;20477;-82
2021/04/08 00:12:59;;;;;;;1.00;0.80;;;23.50;53.80;;;;;;5154837;27;20437;-83
2021/04/08 00:15:26;;;;;;;1.20;0.80;;;23.50;53.90;;;;;;5154949;27;20442;-83
2021/04/08 00:17:52;;;;;;;1.13;0.80;;;23.50;53.80;;;;;;5155094;27;20937;-82
2021/04/08 00:20:20;;;;;;;1.20;0.77;;;23.50;53.80;;;;;;5154956;27;20441;-81
2021/04/08 00:22:48;;;;;;;1.00;0.70;;;23.50;53.70;;;;;;5155057;27;20507;-82
2021/04/08 00:25:14;;;;;;;1.00;0.80;;;23.50;53.70;;;;;;5154741;27;20433;-82
2021/04/08 00:27:41;;;;;;;1.00;0.80;;;23.50;53.70;;;;;;5154745;27;20442;-82
2021/04/08 00:30:09;;;;;;;0.90;0.67;;;23.50;53.70;;;;;;5154738;27;20488;-83
2021/04/08 00:32:35;;;;;;;1.20;0.80;;;23.50;53.70;;;;;;5154773;27;20464;-82
2021/04/08 00:35:01;;;;;;;1.10;0.90;;;23.50;53.70;;;;;;5154824;27;20441;-82
2021/04/08 00:37:28;;;;;;;1.10;0.90;;;23.50;53.70;;;;;;5154868;27;20445;-82
2021/04/08 00:39:55;;;;;;;1.50;0.83;;;23.50;53.60;;;;;;5154753;27;20452;-83
2021/04/08 00:42:22;;;;;;;1.10;0.80;;;23.50;53.60;;;;;;5154800;27;20498;-83
2021/04/08 00:44:48;;;;;;;1.10;0.80;;;23.50;53.70;;;;;;5154642;27;20470;-84
2021/04/08 00:47:15;;;;;;;1.10;0.70;;;23.50;53.60;;;;;;5154826;27;20928;-83
2021/04/08 00:49:41;;;;;;;1.10;0.80;;;23.50;53.70;;;;;;5154444;27;21060;-83
2021/04/08 00:52:07;;;;;;;1.00;0.70;;;23.50;53.60;;;;;;5154548;27;20784;-83
2021/04/08 00:54:34;;;;;;;1.20;0.97;;;23.60;53.70;;;;;;5154725;27;20431;-84
2021/04/08 00:57:02;;;;;;;1.93;0.90;;;23.50;53.60;;;;;;5154479;27;20438;-84
2021/04/08 00:59:29;;;;;;;1.00;0.70;;;23.50;53.60;;;;;;5154508;27;20452;-83
2021/04/08 01:01:55;;;;;;;0.97;0.70;;;23.50;53.60;;;;;;5154228;27;20547;-84
2021/04/08 01:04:22;;;;;;;1.30;1.20;;;23.50;53.60;;;;;;5154764;27;20443;-83
2021/04/08 01:06:48;;;;;;;0.97;0.77;;;23.50;53.60;;;;;;5154553;27;20493;-83
2021/04/08 01:09:14;;;;;;;1.73;0.83;;;23.50;53.50;;;;;;5154275;27;20435;-83
2021/04/08 01:11:41;;;;;;;1.30;0.90;;;23.50;53.50;;;;;;5154599;27;20439;-84
2021/04/08 01:14:08;;;;;;;1.00;0.73;;;23.50;53.50;;;;;;5154371;27;20939;-83
2021/04/08 01:16:42;;;;;;;1.30;1.10;;;23.50;53.50;;;;;;5154313;27;20484;-84
2021/04/08 01:19:38;;;;;;;1.00;0.70;;;23.50;53.50;;;;;;5154514;27;20438;-82
2021/04/08 01:22:14;;;;;;;1.10;0.90;;;23.50;53.40;;;;;;5156959;27;20433;-84
2021/04/08 01:25:15;;;;;;;1.00;0.77;;;23.50;53.60;;;;;;5157993;27;20478;-83
2021/04/08 01:28:10;;;;;;;1.10;0.90;;;23.50;53.50;;;;;;5158017;27;20953;-83
2021/04/08 01:30:42;;;;;;;1.07;0.90;;;23.50;53.60;;;;;;5158107;27;20486;-83
2021/04/08 01:33:14;;;;;;;1.10;0.80;;;23.50;53.70;;;;;;5157958;27;20429;-83
2021/04/08 01:35:42;;;;;;;1.17;0.87;;;23.40;53.60;;;;;;5157858;27;20790;-84
2021/04/08 01:38:13;;;;;;;1.30;1.03;;;23.40;53.60;;;;;;5157905;27;20493;-83
2021/04/08 01:40:40;;;;;;;1.00;0.60;;;23.60;53.70;;;;;;5157689;27;20445;-82
2021/04/08 01:43:08;;;;;;;1.10;0.80;;;23.50;53.50;;;;;;5157474;27;20784;-83
2021/04/08 01:45:35;;;;;;;1.00;0.80;;;23.60;53.70;;;;;;5157929;27;20457;-84
2021/04/08 01:48:06;;;;;;;1.13;0.83;;;23.50;53.50;;;;;;5157486;27;20494;-83
2021/04/08 01:50:33;;;;;;;1.00;0.80;;;23.50;53.50;;;;;;5157599;27;20485;-84
2021/04/08 01:53:01;;;;;;;1.43;0.80;;;23.50;53.40;;;;;;5158091;27;20849;-83
2021/04/08 01:55:31;;;;;;;1.57;1.10;;;23.50;53.50;;;;;;5157674;27;20445;-84
2021/04/08 01:57:59;;;;;;;1.07;0.70;;;23.60;53.70;;;;;;5157120;27;20454;-84
2021/04/08 02:00:26;;;;;;;0.97;0.67;;;23.60;53.60;;;;;;5157593;27;20437;-84
2021/04/08 02:02:55;;;;;;;0.90;0.70;;;23.40;53.40;;;;;;5157771;27;20500;-84
2021/04/08 02:05:24;;;;;;;1.10;0.80;;;23.50;53.50;;;;;;5157664;27;20453;-80
2021/04/08 02:07:52;;;;;;;1.03;0.80;;;23.50;53.40;;;;;;5157472;27;20453;-81
2021/04/08 02:10:19;;;;;;;1.10;0.80;;;23.40;53.40;;;;;;5157355;27;20829;-83
2021/04/08 02:12:47;;;;;;;1.40;0.90;;;23.40;53.40;;;;;;5157250;27;20428;-84
2021/04/08 02:15:16;;;;;;;1.10;0.90;;;23.40;53.40;;;;;;5157020;27;20435;-81
2021/04/08 02:17:45;;;;;;;1.57;0.90;;;23.50;53.50;;;;;;5156713;27;20461;-82
2021/04/08 02:20:14;;;;;;;1.10;0.80;;;23.40;53.30;;;;;;5157118;27;20448;-83
2021/04/08 02:22:43;;;;;;;1.10;0.80;;;23.40;53.40;;;;;;5156706;27;20435;-84
2021/04/08 02:25:13;;;;;;;1.00;0.80;;;23.60;53.60;;;;;;5156809;27;20436;-81
2021/04/08 02:27:39;;;;;;;1.20;0.80;;;23.40;53.40;;;;;;5156789;27;20447;-81
2021/04/08 02:30:08;;;;;;;1.10;0.90;;;23.40;53.40;;;;;;5156532;27;20995;-80
2021/04/08 02:32:36;;;;;;;1.10;0.90;;;23.40;53.30;;;;;;5155983;27;20459;-81
2021/04/08 02:35:05;;;;;;;1.10;0.90;;;23.40;53.30;;;;;;5156464;27;20977;-80
2021/04/08 02:37:31;;;;;;;1.10;0.80;;;23.40;53.40;;;;;;5156323;27;20787;-81
2021/04/08 02:39:58;;;;;;;1.10;0.80;;;23.40;53.40;;;;;;5156344;27;20448;-82
2021/04/08 02:42:25;;;;;;;1.20;0.90;;;23.40;53.30;;;;;;5156519;27;20509;-82
2021/04/08 02:44:51;;;;;;;1.00;0.80;;;23.40;53.30;;;;;;5156174;27;21011;-82
2021/04/08 02:47:17;;;;;;;1.07;0.90;;;23.40;53.30;;;;;;5156405;27;20460;-81
2021/04/08 02:49:44;;;;;;;1.03;0.80;;;23.40;53.30;;;;;;5156349;27;20537;-82
2021/04/08 02:52:16;;;;;;;1.33;1.03;;;23.40;53.30;;;;;;5156145;27;20866;-83
2021/04/08 02:54:47;;;;;;;1.00;0.70;;;23.40;53.40;;;;;;5156263;27;20448;-80
2021/04/08 02:57:22;;;;;;;1.57;1.30;;;23.40;53.30;;;;;;5156120;27;20434;-80
2021/04/08 02:59:51;;;;;;;1.57;1.13;;;23.40;53.30;;;;;;5156287;27;20446;-81
2021/04/08 03:02:20;;;;;;;1.63;1.00;;;23.40;53.30;;;;;;5155786;27;20500;-80
2021/04/08 03:04:51;;;;;;;1.00;0.60;;;23.40;53.40;;;;;;5155848;27;20443;-81
2021/04/08 03:07:23;;;;;;;1.00;0.80;;;23.40;53.30;;;;;;5155849;27;20436;-81
2021/04/08 03:09:50;;;;;;;1.20;0.90;;;23.40;53.40;;;;;;5155833;27;20483;-80
2021/04/08 03:12:20;;;;;;;1.00;0.80;;;23.40;53.20;;;;;;5155741;27;20442;-81
2021/04/08 03:14:50;;;;;;;1.10;0.90;;;23.40;53.20;;;;;;5155703;27;20442;-82
2021/04/08 03:17:19;;;;;;;1.00;0.70;;;23.40;53.20;;;;;;5155742;27;20434;-80
2021/04/08 03:19:49;;;;;;;1.00;0.90;;;23.40;53.20;;;;;;5155576;27;20490;-81
2021/04/08 03:22:17;;;;;;;1.20;0.70;;;23.40;53.10;;;;;;5155525;27;20444;-83
2021/04/08 03:24:45;;;;;;;0.90;0.70;;;23.40;53.10;;;;;;5155600;27;20440;-83
2021/04/08 03:27:12;;;;;;;1.10;0.90;;;23.30;53.10;;;;;;5155491;27;20974;-82
2021/04/08 03:29:41;;;;;;;1.00;0.80;;;23.30;53.10;;;;;;5155370;27;20545;-82
2021/04/08 03:32:08;;;;;;;1.53;1.13;;;23.30;53.10;;;;;;5155232;27;20815;-83
2021/04/08 03:34:36;;;;;;;1.03;0.87;;;23.30;53.10;;;;;;5155335;27;20444;-81
2021/04/08 03:37:03;;;;;;;1.23;0.90;;;23.30;53.10;;;;;;5155328;27;20462;-83
2021/04/08 03:39:30;;;;;;;1.03;0.83;;;23.30;53.10;;;;;;5155252;27;20445;-83
2021/04/08 03:41:57;;;;;;;1.13;0.90;;;23.30;53.10;;;;;;5155263;27;20793;-83
2021/04/08 03:44:25;;;;;;;1.10;0.80;;;23.30;53.00;;;;;;5154264;27;20505;-83
2021/04/08 03:46:57;;;;;;;1.00;0.70;;;23.30;53.00;;;;;;5155283;27;20510;-83
2021/04/08 03:49:26;;;;;;;1.10;1.00;;;23.30;53.00;;;;;;5155210;27;20524;-84
2021/04/08 03:51:54;;;;;;;1.00;0.80;;;23.30;53.00;;;;;;5155009;27;20439;-81
2021/04/08 03:54:22;;;;;;;1.10;0.80;;;23.30;53.00;;;;;;5155087;27;20431;-81
2021/04/08 03:56:51;;;;;;;1.10;0.80;;;23.30;53.10;;;;;;5154891;27;20435;-81
2021/04/08 03:59:19;;;;;;;1.07;0.87;;;23.30;53.00;;;;;;5154967;27;20429;-80
2021/04/08 04:01:46;;;;;;;1.00;0.80;;;23.30;53.00;;;;;;5154996;27;20506;-80
2021/04/08 04:04:14;;;;;;;1.10;0.90;;;23.30;53.00;;;;;;5155079;27;20471;-80
2021/04/08 04:06:44;;;;;;;1.63;0.90;;;23.30;52.80;;;;;;5155025;27;20438;-80
2021/04/08 04:09:11;;;;;;;1.20;0.87;;;23.30;52.90;;;;;;5154861;27;20437;-80
2021/04/08 04:11:39;;;;;;;1.20;1.10;;;23.30;52.90;;;;;;5154722;27;20473;-80
2021/04/08 04:14:09;;;;;;;1.10;0.80;;;23.30;52.90;;;;;;5154769;27;20441;-80
2021/04/08 04:16:40;;;;;;;1.10;0.80;;;23.30;52.90;;;;;;5154851;27;20464;-80
2021/04/08 04:19:06;;;;;;;0.90;0.70;;;23.40;52.90;;;;;;5154668;27;20439;-80
2021/04/08 04:21:34;;;;;;;1.03;0.87;;;23.40;53.00;;;;;;5154718;27;20442;-80
2021/04/08 04:24:00;;;;;;;1.00;0.70;;;23.40;52.90;;;;;;5154761;27;20444;-82
2021/04/08 04:26:27;;;;;;;1.20;0.80;;;23.40;52.90;;;;;;5154632;27;20775;-82
2021/04/08 04:28:54;;;;;;;1.00;0.80;;;23.40;52.90;;;;;;5154570;27;20441;-82
2021/04/08 04:31:20;;;;;;;1.07;0.80;;;23.30;53.50;;;;;;5154431;27;20572;-83
2021/04/08 04:33:47;;;;;;;1.60;0.90;;;23.30;53.00;;;;;;5154639;27;20512;-82
2021/04/08 04:36:13;;;;;;;1.97;0.87;;;23.30;52.90;;;;;;5154675;27;20448;-83
2021/04/08 04:38:40;;;;;;;1.50;0.90;;;23.30;52.90;;;;;;5154471;27;20441;-81
2021/04/08 04:41:07;;;;;;;1.10;0.87;;;23.30;52.90;;;;;;5154453;27;20837;-80
2021/04/08 04:43:33;;;;;;;1.20;0.90;;;23.30;53.00;;;;;;5154367;27;20474;-81
2021/04/08 04:45:59;;;;;;;1.03;0.80;;;23.30;52.90;;;;;;5154531;27;20438;-82
2021/04/08 04:48:26;;;;;;;0.90;0.70;;;23.30;53.00;;;;;;5154593;27;20935;-82
2021/04/08 04:50:52;;;;;;;1.10;0.90;;;23.30;52.90;;;;;;5154418;27;20542;-81
2021/04/08 04:53:19;;;;;;;1.17;0.70;;;23.30;52.90;;;;;;5154409;27;20438;-80
2021/04/08 04:55:46;;;;;;;1.00;0.70;;;23.30;52.90;;;;;;5156734;27;20438;-81
2021/04/08 04:58:12;;;;;;;1.10;1.00;;;23.30;52.80;;;;;;5158265;27;20437;-80
2021/04/08 05:00:39;;;;;;;1.20;0.90;;;23.30;52.90;;;;;;5158229;27;20474;-81
2021/04/08 05:03:06;;;;;;;1.10;0.80;;;23.30;52.90;;;;;;5158180;27;20443;-81
2021/04/08 05:05:32;;;;;;;1.00;0.70;;;23.30;52.80;;;;;;5157371;27;20438;-81
2021/04/08 05:07:58;;;;;;;1.27;0.87;;;23.40;52.90;;;;;;5138028;27;20434;-80
2021/04/08 05:10:25;;;;;;;1.00;0.83;;;23.40;52.90;;;;;;5137285;27;20474;-81
2021/04/08 05:12:52;;;;;;;1.20;0.80;;;23.30;52.80;;;;;;5137348;27;20444;-81
2021/04/08 05:15:19;;;;;;;1.00;0.70;;;23.30;53.00;;;;;;5137346;27;20443;-81
2021/04/08 05:17:45;;;;;;;1.10;0.80;;;23.30;52.90;;;;;;5137316;27;20439;-80
2021/04/08 05:20:13;;;;;;;1.10;0.80;;;23.30;52.80;;;;;;5137199;27;20437;-81
2021/04/08 05:22:39;;;;;;;1.00;0.80;;;23.30;52.90;;;;;;5137183;27;20442;-81
2021/04/08 05:25:07;;;;;;;1.30;0.90;;;23.30;52.90;;;;;;5137087;27;20438;-81
2021/04/08 05:27:33;;;;;;;1.00;0.80;;;23.30;53.50;;;;;;5137196;27;20845;-81
2021/04/08 05:30:00;;;;;;;0.90;0.70;;;23.30;53.00;;;;;;5136935;27;20486;-81
2021/04/08 05:32:27;;;;;;;1.30;1.10;;;23.30;52.90;;;;;;5137061;27;20442;-81
2021/04/08 05:34:53;;;;;;;1.20;0.80;;;23.30;52.90;;;;;;5136911;27;20442;-81
2021/04/08 05:37:20;;;;;;;1.17;0.97;;;23.30;53.00;;;;;;5136937;27;20970;-81
2021/04/08 05:39:46;;;;;;;1.10;0.77;;;23.30;52.90;;;;;;5136839;27;20435;-81
2021/04/08 05:42:13;;;;;;;1.37;0.80;;;23.30;52.90;;;;;;5136849;27;20448;-80
2021/04/08 05:44:39;;;;;;;1.20;0.90;;;23.30;53.00;;;;;;5136628;27;20841;-80
2021/04/08 05:47:06;;;;;;;2.17;0.90;;;23.30;53.00;;;;;;5136710;27;20448;-81
2021/04/08 05:49:32;;;;;;;1.10;0.80;;;23.20;53.00;;;;;;5137073;27;20517;-81
2021/04/08 05:51:59;;;;;;;1.10;0.80;;;23.30;52.90;;;;;;5151607;27;20836;-81
2021/04/08 05:54:25;;;;;;;0.97;0.70;;;23.20;52.70;;;;;;5157471;27;20791;-81
2021/04/08 05:56:51;;;;;;;1.10;0.80;;;23.30;52.90;;;;;;5149338;27;20868;-82
2021/04/08 05:59:18;;;;;;;1.80;0.70;;;23.30;53.00;;;;;;5139057;27;20432;-81
2021/04/08 06:01:44;;;;;;;1.27;0.97;;;23.30;53.00;;;;;;5136360;27;20463;-81
2021/04/08 06:04:11;;;;;;;1.00;0.70;;;23.30;53.20;;;;;;5136569;27;20514;-80
2021/04/08 06:06:37;;;;;;;2.30;0.93;;;23.30;53.10;;;;;;5135897;27;20808;-83
2021/04/08 06:09:04;;;;;;;1.03;0.70;;;23.30;53.10;;;;;;5136694;27;20440;-84
2021/04/08 06:11:31;;;;;;;1.30;0.90;;;23.30;53.00;;;;;;5136341;27;20466;-83
2021/04/08 06:13:57;;;;;;;1.00;0.77;;;23.30;53.20;;;;;;5136581;27;20454;-84
2021/04/08 06:16:23;;;;;;;2.30;0.77;;;23.40;53.40;;;;;;5136537;27;20449;-82
2021/04/08 06:18:50;;;;;;;1.50;0.93;;;23.40;53.40;;;;;;5136473;27;20442;-84
2021/04/08 06:21:17;;;;;;;1.20;0.90;;;23.40;53.50;;;;;;5136229;27;20444;-84
2021/04/08 06:23:43;;;;;;;1.10;0.80;;;23.40;53.60;;;;;;5136152;27;20774;-84
2021/04/08 06:26:10;;;;;;;3.30;0.80;;;23.40;53.60;;;;;;5136167;27;20434;-84
2021/04/08 06:28:36;;;;;;;1.50;0.90;;;23.40;54.20;;;;;;5136216;27;20845;-84
2021/04/08 06:31:02;;;;;;;1.30;0.87;;;23.40;53.70;;;;;;5135816;27;20486;-84
2021/04/08 06:33:29;;;;;;;1.50;0.90;;;23.40;53.70;;;;;;5136188;27;20454;-83
2021/04/08 06:35:55;;;;;;;1.40;1.00;;;23.50;53.70;;;;;;5136125;27;20444;-84
2021/04/08 06:38:22;;;;;;;3.30;0.93;;;23.50;53.80;;;;;;5135936;27;20434;-83
2021/04/08 06:40:50;;;;;;;1.17;0.90;;;23.50;53.80;;;;;;5135666;27;20449;-83
2021/04/08 06:43:16;;;;;;;1.13;0.93;;;23.50;53.80;;;;;;5135447;27;20476;-84
2021/04/08 06:45:47;;;;;;;2.20;1.00;;;23.50;54.00;;;;;;5135611;27;20775;-83
2021/04/08 06:48:18;;;;;;;1.10;0.90;;;23.50;54.00;;;;;;5135680;27;20449;-84
2021/04/08 06:50:46;;;;;;;1.03;0.80;;;23.50;54.10;;;;;;5143771;27;20513;-84
2021/04/08 06:53:13;;;;;;;1.50;1.00;;;23.50;54.10;;;;;;5145617;27;20430;-85
2021/04/08 06:55:42;;;;;;;2.00;0.90;;;23.50;54.10;;;;;;5146823;27;20454;-83
2021/04/08 06:58:09;;;;;;;1.30;1.10;;;23.50;54.20;;;;;;5135243;27;21006;-84
2021/04/08 07:00:36;;;;;;;1.30;1.00;;;23.50;54.30;;;;;;5135391;27;20953;-84
2021/04/08 07:03:04;;;;;;;1.10;0.80;;;23.50;54.20;;;;;;5135093;27;20435;-84
2021/04/08 07:05:30;;;;;;;20.13;1.13;;;23.50;54.20;;;;;;5135190;27;20493;-84
2021/04/08 07:07:56;;;;;;;1.50;1.10;;;23.50;54.20;;;;;;5141250;27;20437;-84
2021/04/08 07:10:23;;;;;;;1.97;0.90;;;23.60;54.30;;;;;;5152840;27;20818;-87
2021/04/08 07:12:53;;;;;;;1.10;0.83;;;23.60;54.20;;;;;;5149141;27;20454;-80
2021/04/08 07:15:20;;;;;;;1.10;0.90;;;23.60;54.60;;;;;;5150360;27;20815;-90
2021/04/08 07:17:47;;;;;;;1.00;0.73;;;23.60;54.30;;;;;;5146229;27;20428;-92
2021/04/08 07:20:20;;;;;;;1.87;0.90;;;23.60;54.40;;;;;;5150508;27;20597;-84
2021/04/08 07:22:47;;;;;;;1.00;0.80;;;23.60;54.20;;;;;;5147365;27;20440;-87
2021/04/08 07:25:15;;;;;;;1.10;1.00;;;23.60;53.80;;;;;;5137038;27;20835;-88
2021/04/08 07:27:42;;;;;;;2.07;1.00;;;23.60;54.10;;;;;;5134980;27;20444;-83
2021/04/08 07:30:10;;;;;;;1.43;0.90;;;23.60;54.00;;;;;;5134859;27;20539;-86
2021/04/08 07:32:39;;;;;;;1.20;0.80;;;23.70;54.10;;;;;;5144060;27;20526;-85
2021/04/08 07:35:15;;;;;;;1.40;0.80;;;23.60;53.90;;;;;;5138484;27;20446;-84
2021/04/08 07:37:43;;;;;;;1.00;0.70;;;23.70;54.00;;;;;;5134452;27;20591;-83
2021/04/08 07:40:23;;;;;;;1.30;1.03;;;23.70;54.10;;;;;;5134460;27;20443;-84
2021/04/08 07:42:49;;;;;;;2.13;1.20;;;23.70;54.10;;;;;;5149585;27;20467;-85
2021/04/08 07:45:25;;;;;;;1.17;1.00;;;23.70;54.10;;;;;;5149072;27;20532;-83
2021/04/08 07:47:59;;;;;;;1.30;0.90;;;23.70;53.80;;;;;;5135123;27;20537;-87
2021/04/08 07:50:26;;;;;;;1.60;1.07;;;23.80;54.10;;;;;;5144168;27;20487;-85
2021/04/08 07:52:53;;;;;;;2.13;1.50;;;23.70;54.10;;;;;;5134525;27;20446;-84
2021/04/08 07:55:21;;;;;;;2.33;1.20;;;23.80;53.40;;;;;;5134797;27;20492;-86
2021/04/08 07:57:54;;;;;;;3.93;1.23;;;23.80;53.60;;;;;;5134057;27;20440;-86
2021/04/08 08:00:22;;;;;;;2.50;1.00;;;23.80;53.80;;;;;;5134781;27;20538;-84
2021/04/08 08:02:50;;;;;;;1.97;1.00;;;23.80;53.90;;;;;;5140791;27;20537;-83
2021/04/08 08:05:19;;;;;;;2.97;1.03;;;23.80;53.70;;;;;;5133908;27;20446;-83
2021/04/08 08:07:45;;;;;;;2.43;1.17;;;23.80;53.90;;;;;;5134203;27;20487;-82
2021/04/08 08:10:20;;;;;;;4.13;1.47;;;23.90;54.50;;;;;;5133853;28;20466;-83
2021/04/08 08:12:47;;;;;;;1.73;1.00;;;23.90;54.70;;;;;;5133658;28;20432;-82
2021/04/08 08:15:31;;;;;;;1.40;1.30;;;23.90;54.90;;;;;;5133885;28;20814;-82
2021/04/08 08:17:58;;;;;;;1.67;1.07;;;24.00;54.90;;;;;;5134044;28;20451;-82
2021/04/08 08:20:26;;;;;;;1.50;0.90;;;23.90;55.00;;;;;;5133540;28;20477;-82
2021/04/08 08:22:53;;;;;;;2.53;1.00;;;24.00;55.20;;;;;;5134436;28;20542;-83
2021/04/08 08:25:24;;;;;;;2.27;0.97;;;24.00;55.10;;;;;;5133834;28;20439;-82
2021/04/08 08:27:52;;;;;;;1.20;1.00;;;24.10;55.20;;;;;;5134015;28;20440;-82
2021/04/08 08:30:21;;;;;;;3.70;1.27;;;24.10;55.20;;;;;;5135045;27;20509;-82
2021/04/08 08:33:06;;;;;;;2.40;1.10;;;24.10;55.10;;;;;;5140354;27;20439;-82
2021/04/08 08:35:33;;;;;;;1.00;0.80;;;24.20;55.20;;;;;;5142831;27;21425;-83
2021/04/08 08:38:09;;;;;;;2.33;0.97;;;24.20;55.30;;;;;;5155858;27;20434;-83
2021/04/08 08:40:36;;;;;;;1.30;0.90;;;24.20;56.00;;;;;;5140616;27;20449;-82
2021/04/08 08:43:04;;;;;;;1.40;0.90;;;24.30;55.40;;;;;;5137622;27;20488;-82
2021/04/08 08:45:32;;;;;;;3.77;1.27;;;24.30;55.40;;;;;;5137663;27;20827;-84
2021/04/08 08:48:01;;;;;;;1.60;0.90;;;24.40;55.20;;;;;;5137128;27;20444;-83
2021/04/08 08:50:28;;;;;;;1.93;1.50;;;24.40;55.20;;;;;;5137338;27;20488;-84
2021/04/08 08:52:55;;;;;;;10.90;1.13;;;24.40;55.30;;;;;;5137130;27;20531;-84
2021/04/08 08:55:23;;;;;;;2.77;1.17;;;24.50;55.30;;;;;;5137089;27;20445;-84
2021/04/08 08:57:52;;;;;;;1.70;1.13;;;24.50;55.20;;;;;;5137292;27;20872;-96
2021/04/08 09:00:20;;;;;;;6.20;1.30;;;24.50;55.10;;;;;;5137365;27;20464;-87
2021/04/08 09:02:46;;;;;;;2.97;1.20;;;24.60;55.20;;;;;;5144072;27;20463;-86
2021/04/08 09:05:15;;;;;;;2.03;1.27;;;24.70;55.20;;;;;;5137373;27;20448;-90
2021/04/08 09:07:44;;;;;;;1.30;1.17;;;24.70;55.10;;;;;;5137563;27;20455;-89
2021/04/08 09:10:13;;;;;;;1.40;1.23;;;24.70;55.00;;;;;;5146587;27;20539;-89
2021/04/08 09:12:40;;;;;;;2.80;1.53;;;24.70;55.00;;;;;;5154881;27;20464;-88
2021/04/08 09:15:08;;;;;;;1.50;1.40;;;24.70;55.60;;;;;;5142352;27;20887;-95
2021/04/08 09:17:39;;;;;;;3.70;1.40;;;24.70;55.00;;;;;;5137924;27;20449;-89
2021/04/08 09:20:07;;;;;;;1.77;1.27;;;24.80;55.00;;;;;;5141103;27;20449;-94
2021/04/08 09:22:33;;;;;;;1.70;1.20;;;24.80;55.00;;;;;;5139871;27;20453;-89
2021/04/08 09:25:01;;;;;;;1.50;1.20;;;24.80;54.90;;;;;;5151716;27;20455;-88
2021/04/08 09:27:28;;;;;;;2.70;1.40;;;24.80;54.90;;;;;;5154944;27;20437;-89
2021/04/08 09:29:57;;;;;;;1.80;1.10;;;24.80;54.90;;;;;;5136420;27;20460;-89
2021/04/08 09:32:29;;;;;;;1.90;1.07;;;24.80;54.80;;;;;;5136676;27;20502;-87
2021/04/08 09:35:18;;;;;;;1.30;1.10;;;24.80;54.80;;;;;;5138619;27;20448;-87
2021/04/08 09:38:17;;;;;;;1.47;1.10;;;24.80;54.70;;;;;;5136071;27;20440;-86
2021/04/08 09:41:02;;;;;;;1.87;1.57;;;24.80;54.70;;;;;;5135883;27;20459;-86
2021/04/08 09:43:30;;;;;;;1.47;1.10;;;24.80;54.80;;;;;;5135745;27;20488;-86
2021/04/08 09:46:02;;;;;;;2.33;1.30;;;24.70;54.80;;;;;;5136086;27;20438;-87
2021/04/08 09:48:43;;;;;;;1.50;1.17;;;24.70;54.70;;;;;;5135975;27;20842;-87
2021/04/08 09:51:10;;;;;;;2.30;1.20;;;24.70;55.30;;;;;;5135871;27;20890;-86
2021/04/08 09:53:58;;;;;;;2.27;1.50;;;24.70;54.60;;;;;;5135934;27;20445;-86
2021/04/08 09:59:19;;;;;;;1.70;1.60;;;24.70;54.50;;;;;;5110345;27;20921;-85
2021/04/08 10:01:46;;;;;;;1.30;1.20;;;24.60;54.20;;;;;;5110199;28;20436;-84
2021/04/08 10:04:17;;;;;;;4.93;1.40;;;24.60;54.20;;;;;;5110509;28;20438;-84
2021/04/08 10:06:45;;;;;;;2.20;1.23;;;24.50;53.80;;;;;;5110255;28;20523;-84
2021/04/08 10:09:13;;;;;;;2.37;1.20;;;24.50;54.10;;;;;;5110331;28;20861;-84
2021/04/08 10:11:39;;;;;;;1.60;1.13;;;24.50;53.80;;;;;;5110240;28;20968;-84
2021/04/08 10:14:24;;;;;;;1.60;1.37;;;24.40;53.70;;;;;;5110259;28;20449;-84
2021/04/08 10:17:08;;;;;;;1.80;1.17;;;24.40;53.80;;;;;;5110316;28;20532;-85
2021/04/08 10:19:37;;;;;;;4.13;1.60;;;24.50;54.10;;;;;;5110193;28;20448;-82
2021/04/08 10:22:04;;;;;;;2.23;1.17;;;24.40;53.60;;;;;;5101220;28;20446;-82
2021/04/08 10:24:38;;;;;;;5.90;1.40;;;24.40;54.10;;;;;;5089905;28;20445;-83
2021/04/08 10:27:16;;;;;;;1.97;1.47;;;24.40;54.00;;;;;;5089734;28;20441;-88
2021/04/08 10:29:45;;;;;;;1.77;1.23;;;24.50;54.20;;;;;;5089619;28;20466;-82
2021/04/08 10:32:12;;;;;;;4.40;1.57;;;24.40;52.90;;;;;;5089428;28;20446;-82
2021/04/08 10:34:41;;;;;;;1.93;1.27;;;24.50;54.70;;;;;;5089405;28;20453;-81
2021/04/08 10:37:09;;;;;;;2.43;1.40;;;24.50;54.60;;;;;;5089380;28;20452;-82
2021/04/08 10:39:37;;;;;;;1.50;1.37;;;24.50;54.70;;;;;;5089190;28;20450;-82
2021/04/08 10:42:05;;;;;;;1.93;1.40;;;24.50;54.30;;;;;;5089200;28;20442;-83
2021/04/08 10:44:33;;;;;;;1.50;1.20;;;24.50;54.40;;;;;;5089411;28;20873;-82
2021/04/08 10:47:02;;;;;;;1.83;1.40;;;24.50;54.40;;;;;;5089437;28;20443;-82
2021/04/08 10:49:31;;;;;;;3.87;1.57;;;24.60;54.30;;;;;;5089371;28;20441;-83
2021/04/08 10:52:02;;;;;;;1.50;1.40;;;24.60;54.30;;;;;;5089281;28;20442;-81
2021/04/08 10:54:30;;;;;;;3.23;1.60;;;24.60;54.30;;;;;;5089267;28;20496;-83
2021/04/08 10:56:57;;;;;;;1.97;1.60;;;24.60;54.00;;;;;;5088810;28;20793;-82
2021/04/08 10:59:25;;;;;;;3.30;1.20;;;24.60;54.20;;;;;;5087903;28;20885;-82
2021/04/08 11:01:53;;;;;;;1.60;1.30;;;24.60;54.00;;;;;;5105048;28;20454;-88
2021/04/08 11:04:22;;;;;;;4.57;1.50;;;24.60;54.30;;;;;;5108694;28;20436;-88
2021/04/08 11:06:50;;;;;;;3.00;1.60;;;24.60;54.00;;;;;;5108665;28;20786;-86
2021/04/08 11:09:22;;;;;;;1.70;1.37;;;24.60;54.00;;;;;;5103539;28;20482;-88
2021/04/08 11:11:48;;;;;;;2.10;1.50;;;24.60;54.00;;;;;;5096286;28;20850;-86
2021/04/08 11:14:20;;;;;;;3.50;1.67;;;24.50;53.80;;;;;;5095571;28;20449;-85
2021/04/08 11:16:47;;;;;;;1.53;1.30;;;24.50;53.80;;;;;;5095880;28;20453;-90
2021/04/08 11:19:14;;;;;;;1.60;1.27;;;24.50;53.60;;;;;;5095344;28;20481;-83
2021/04/08 11:21:48;;;;;;;2.03;1.40;;;24.50;53.50;;;;;;5092726;28;20454;-90
2021/04/08 11:24:16;;;;;;;2.13;1.30;;;24.50;53.90;;;;;;5085284;28;20535;-81
2021/04/08 11:26:49;;;;;;;1.70;1.13;;;24.50;53.70;;;;;;5095066;28;20857;-84
2021/04/08 11:29:21;;;;;;;2.60;1.70;;;24.50;53.70;;;;;;5095055;28;20442;-84
2021/04/08 11:31:59;;;;;;;3.00;1.57;;;24.50;54.20;;;;;;5095054;28;20520;-84
2021/04/08 11:34:25;;;;;;;1.97;1.20;;;24.50;53.80;;;;;;5094961;28;20442;-87
2021/04/08 11:36:53;;;;;;;1.67;1.10;;;24.60;54.30;;;;;;5095332;28;20882;-85
2021/04/08 11:39:20;;;;;;;1.40;1.30;;;24.60;54.30;;;;;;5095808;28;20538;-88
2021/04/08 11:41:46;;;;;;;2.03;1.20;;;24.50;52.40;;;;;;5095387;28;20457;-83
2021/04/08 11:44:23;;;;;;;3.23;1.80;;;24.50;53.90;;;;;;5095645;28;20548;-82
2021/04/08 11:46:49;;;;;;;3.67;1.60;;;24.50;53.70;;;;;;5095394;28;20529;-82
2021/04/08 11:49:18;;;;;;;1.40;1.17;;;24.50;54.10;;;;;;5095218;28;20460;-82
2021/04/08 11:51:45;;;;;;;6.17;1.50;;;24.50;54.20;;;;;;5095438;28;20446;-86
2021/04/08 11:54:16;;;;;;;1.60;1.17;;;24.60;54.30;;;;;;5095593;28;20532;-88
2021/04/08 11:56:43;;;;;;;2.40;1.60;;;24.60;54.50;;;;;;5095344;28;20445;-84
2021/04/08 11:59:12;;;;;;;3.40;1.37;;;24.60;54.30;;;;;;5088583;28;21000;-84
2021/04/08 12:01:41;;;;;;;3.57;1.20;;;24.60;54.60;;;;;;5073387;28;20458;-81
2021/04/08 12:04:13;;;;;;;4.87;1.40;;;24.60;54.60;;;;;;5090521;28;20447;-83
2021/04/08 12:06:44;;;;;;;2.93;1.20;;;24.60;54.70;;;;;;5094096;28;20457;-83
2021/04/08 12:09:12;;;;;;;1.47;1.23;;;24.60;54.70;;;;;;5094589;28;20533;-83
2021/04/08 12:11:51;;;;;;;2.90;1.37;;;24.60;55.20;;;;;;5094695;28;20453;-86
2021/04/08 12:14:18;;;;;;;2.43;1.23;;;24.70;55.30;;;;;;5090536;28;20457;-83
2021/04/08 12:16:44;;;;;;;2.60;1.30;;;24.70;55.60;;;;;;5073843;28;20967;-83
2021/04/08 12:19:21;;;;;;;2.47;1.60;;;24.70;55.80;;;;;;5073943;28;20577;-86
2021/04/08 12:21:59;;;;;;;1.57;1.47;;;24.70;56.00;;;;;;5076391;28;20538;-87
2021/04/08 12:24:26;;;;;;;3.10;1.57;;;24.70;56.30;;;;;;5084702;27;20467;-85
2021/04/08 12:26:53;;;;;;;2.77;2.00;;;24.70;56.70;;;;;;5087434;28;20449;-86
2021/04/08 12:29:20;;;;;;;5.40;2.67;;;24.80;57.30;;;;;;5094637;28;20485;-86
2021/04/08 12:31:48;;;;;;;4.93;2.30;;;24.80;57.30;;;;;;5094458;28;20435;-85
2021/04/08 12:34:14;;;;;;;3.30;2.20;;;24.80;57.60;;;;;;5094641;28;20435;-85
2021/04/08 12:36:41;;;;;;;3.40;2.30;;;24.80;57.70;;;;;;5094342;28;21009;-85
2021/04/08 12:39:07;;;;;;;4.80;2.13;;;24.90;58.10;;;;;;5094332;28;20484;-84
2021/04/08 12:41:34;;;;;;;3.40;2.47;;;24.80;57.90;;;;;;5094326;28;20454;-85
2021/04/08 12:44:01;;;;;;;3.53;2.00;;;24.90;58.00;;;;;;5094306;28;20447;-85
2021/04/08 12:46:28;;;;;;;2.33;2.13;;;24.90;58.10;;;;;;5094349;28;20541;-86
2021/04/08 12:48:54;;;;;;;2.80;2.00;;;25.20;58.10;;;;;;5094436;28;20583;-85
2021/04/08 12:51:20;;;;;;;1.70;1.50;;;25.00;57.80;;;;;;5094080;28;20592;-84
2021/04/08 12:53:47;;;;;;;1.90;1.70;;;24.90;54.10;;;;;;5085729;28;20467;-85
2021/04/08 12:56:14;;;;;;;6.10;2.20;;;25.00;55.20;;;;;;5093847;28;20450;-84
2021/04/08 12:58:41;;;;;;;6.73;2.07;;;25.10;56.40;;;;;;5090638;28;21008;-84